sensor_id;sensor_type;location;lat;lon;timestamp;temperature;humidity
810;DHT22;387;48.772;9.186;2022-09-27T00:01:56;10.20;94.90
810;DHT22;387;48.772;9.186;2022-09-27T00:04:22;10.30;94.80
810;DHT22;387;48.772;9.186;2022-09-27T00:06:48;10.30;94.90
810;DHT22;387;48.772;9.186;2022-09-27T00:09:13;10.30;94.90
810;DHT22;387;48.772;9.186;2022-09-27T00:11:40;10.30;94.80
810;DHT22;387;48.772;9.186;2022-09-27T00:14:12;10.30;94.90
810;DHT22;387;48.772;9.186;2022-09-27T00:16:39;10.30;94.80
810;DHT22;387;48.772;9.186;2022-09-27T00:19:14;10.30;94.90
810;DHT22;387;48.772;9.186;2022-09-27T00:21:41;10.30;95.00
810;DHT22;387;48.772;9.186;2022-09-27T00:24:14;10.30;95.10
810;DHT22;387;48.772;9.186;2022-09-27T00:26:41;10.30;95.20
810;DHT22;387;48.772;9.186;2022-09-27T00:29:08;10.30;95.30
810;DHT22;387;48.772;9.186;2022-09-27T00:31:36;10.30;95.30
810;DHT22;387;48.772;9.186;2022-09-27T00:34:03;10.30;95.40
810;DHT22;387;48.772;9.186;2022-09-27T00:36:30;10.30;95.40
810;DHT22;387;48.772;9.186;2022-09-27T00:38:57;10.30;95.50
810;DHT22;387;48.772;9.186;2022-09-27T00:41:32;10.30;95.40
810;DHT22;387;48.772;9.186;2022-09-27T00:44:00;10.30;95.40
810;DHT22;387;48.772;9.186;2022-09-27T00:46:44;10.30;95.40
810;DHT22;387;48.772;9.186;2022-09-27T00:49:15;10.30;95.30
810;DHT22;387;48.772;9.186;2022-09-27T00:51:44;10.40;95.20
810;DHT22;387;48.772;9.186;2022-09-27T00:54:14;10.40;94.90
810;DHT22;387;48.772;9.186;2022-09-27T00:56:42;10.40;94.90
810;DHT22;387;48.772;9.186;2022-09-27T01:01:41;10.40;94.90
810;DHT22;387;48.772;9.186;2022-09-27T01:04:13;10.40;94.90
810;DHT22;387;48.772;9.186;2022-09-27T01:06:42;10.50;95.00
810;DHT22;387;48.772;9.186;2022-09-27T01:09:09;10.50;94.70
810;DHT22;387;48.772;9.186;2022-09-27T01:23:04;10.70;94.40
810;DHT22;387;48.772;9.186;2022-09-27T01:25:45;10.70;94.20
810;DHT22;387;48.772;9.186;2022-09-27T01:28:21;10.70;94.20
810;DHT22;387;48.772;9.186;2022-09-27T01:30:59;10.70;94.30
810;DHT22;387;48.772;9.186;2022-09-27T01:36:18;10.70;94.20
810;DHT22;387;48.772;9.186;2022-09-27T01:42:10;10.80;94.10
810;DHT22;387;48.772;9.186;2022-09-27T01:44:47;10.80;94.20
810;DHT22;387;48.772;9.186;2022-09-27T01:47:25;10.80;94.10
810;DHT22;387;48.772;9.186;2022-09-27T01:50:03;10.80;94.10
810;DHT22;387;48.772;9.186;2022-09-27T01:52:49;10.80;94.20
810;DHT22;387;48.772;9.186;2022-09-27T01:55:18;10.80;94.40
810;DHT22;387;48.772;9.186;2022-09-27T01:57:51;10.80;94.40
810;DHT22;387;48.772;9.186;2022-09-27T02:00:17;10.80;94.30
810;DHT22;387;48.772;9.186;2022-09-27T02:02:56;10.80;94.50
810;DHT22;387;48.772;9.186;2022-09-27T02:05:27;10.90;94.50
810;DHT22;387;48.772;9.186;2022-09-27T02:08:01;10.90;94.50
810;DHT22;387;48.772;9.186;2022-09-27T02:10:39;10.90;94.40
810;DHT22;387;48.772;9.186;2022-09-27T02:15:46;11.00;94.30
810;DHT22;387;48.772;9.186;2022-09-27T02:18:17;11.10;94.20
810;DHT22;387;48.772;9.186;2022-09-27T02:20:57;11.00;94.50
810;DHT22;387;48.772;9.186;2022-09-27T02:23:40;11.00;94.80
810;DHT22;387;48.772;9.186;2022-09-27T02:26:30;10.90;95.20
810;DHT22;387;48.772;9.186;2022-09-27T02:29:04;10.80;95.60
810;DHT22;387;48.772;9.186;2022-09-27T02:31:31;10.80;96.10
810;DHT22;387;48.772;9.186;2022-09-27T02:34:08;10.60;96.30
810;DHT22;387;48.772;9.186;2022-09-27T02:36:35;10.50;96.20
810;DHT22;387;48.772;9.186;2022-09-27T02:39:02;10.40;94.90
810;DHT22;387;48.772;9.186;2022-09-27T02:41:27;10.30;95.20
810;DHT22;387;48.772;9.186;2022-09-27T02:44:01;10.20;94.80
810;DHT22;387;48.772;9.186;2022-09-27T02:51:56;10.00;94.20
810;DHT22;387;48.772;9.186;2022-09-27T03:00:20;9.90;94.30
810;DHT22;387;48.772;9.186;2022-09-27T03:08:22;9.80;93.90
810;DHT22;387;48.772;9.186;2022-09-27T03:10:47;9.90;94.00
810;DHT22;387;48.772;9.186;2022-09-27T03:13:13;9.90;94.20
810;DHT22;387;48.772;9.186;2022-09-27T03:15:39;9.90;94.10
810;DHT22;387;48.772;9.186;2022-09-27T03:18:04;9.90;94.10
810;DHT22;387;48.772;9.186;2022-09-27T03:20:30;9.90;94.00
810;DHT22;387;48.772;9.186;2022-09-27T03:22:56;9.90;94.00
810;DHT22;387;48.772;9.186;2022-09-27T03:25:21;9.90;93.90
810;DHT22;387;48.772;9.186;2022-09-27T03:27:47;9.90;93.90
810;DHT22;387;48.772;9.186;2022-09-27T03:30:14;10.00;93.60
810;DHT22;387;48.772;9.186;2022-09-27T03:32:44;10.00;93.50
810;DHT22;387;48.772;9.186;2022-09-27T03:35:11;10.00;93.60
810;DHT22;387;48.772;9.186;2022-09-27T03:37:36;9.90;93.60
810;DHT22;387;48.772;9.186;2022-09-27T03:40:03;9.90;93.70
810;DHT22;387;48.772;9.186;2022-09-27T03:42:29;9.90;93.80
810;DHT22;387;48.772;9.186;2022-09-27T03:44:54;9.90;93.80
810;DHT22;387;48.772;9.186;2022-09-27T03:47:20;9.90;93.60
810;DHT22;387;48.772;9.186;2022-09-27T03:49:47;9.90;93.60
810;DHT22;387;48.772;9.186;2022-09-27T03:52:13;9.80;93.90
810;DHT22;387;48.772;9.186;2022-09-27T03:54:39;9.80;93.80
810;DHT22;387;48.772;9.186;2022-09-27T03:57:04;9.80;94.00
810;DHT22;387;48.772;9.186;2022-09-27T03:59:30;9.80;94.00
810;DHT22;387;48.772;9.186;2022-09-27T04:01:56;9.80;94.10
810;DHT22;387;48.772;9.186;2022-09-27T04:04:21;9.80;94.30
810;DHT22;387;48.772;9.186;2022-09-27T04:06:47;9.80;94.30
810;DHT22;387;48.772;9.186;2022-09-27T04:09:13;9.90;94.40
810;DHT22;387;48.772;9.186;2022-09-27T04:11:39;9.90;94.40
810;DHT22;387;48.772;9.186;2022-09-27T04:14:04;9.90;94.40
810;DHT22;387;48.772;9.186;2022-09-27T04:16:30;9.90;94.40
810;DHT22;387;48.772;9.186;2022-09-27T04:18:57;10.00;94.00
810;DHT22;387;48.772;9.186;2022-09-27T04:21:23;10.00;94.10
810;DHT22;387;48.772;9.186;2022-09-27T04:23:49;10.00;94.10
810;DHT22;387;48.772;9.186;2022-09-27T04:26:14;10.00;94.10
810;DHT22;387;48.772;9.186;2022-09-27T04:28:40;10.10;94.00
810;DHT22;387;48.772;9.186;2022-09-27T04:31:06;10.10;93.80
810;DHT22;387;48.772;9.186;2022-09-27T04:33:32;10.10;93.80
810;DHT22;387;48.772;9.186;2022-09-27T04:35:57;10.10;93.70
810;DHT22;387;48.772;9.186;2022-09-27T04:38:41;10.10;93.90
810;DHT22;387;48.772;9.186;2022-09-27T04:41:07;10.10;94.00
810;DHT22;387;48.772;9.186;2022-09-27T04:43:33;10.10;94.10
810;DHT22;387;48.772;9.186;2022-09-27T04:45:59;10.10;94.20
810;DHT22;387;48.772;9.186;2022-09-27T04:48:24;10.10;94.00
810;DHT22;387;48.772;9.186;2022-09-27T04:51:00;10.10;93.80
810;DHT22;387;48.772;9.186;2022-09-27T04:53:29;10.10;93.70
810;DHT22;387;48.772;9.186;2022-09-27T04:55:55;10.10;93.70
810;DHT22;387;48.772;9.186;2022-09-27T04:58:24;10.20;93.80
810;DHT22;387;48.772;9.186;2022-09-27T05:00:50;10.30;93.70
810;DHT22;387;48.772;9.186;2022-09-27T05:03:21;10.20;93.40
810;DHT22;387;48.772;9.186;2022-09-27T05:05:46;10.20;93.60
810;DHT22;387;48.772;9.186;2022-09-27T05:08:12;10.30;93.80
810;DHT22;387;48.772;9.186;2022-09-27T05:10:38;10.30;93.50
810;DHT22;387;48.772;9.186;2022-09-27T05:13:04;10.30;93.60
810;DHT22;387;48.772;9.186;2022-09-27T05:15:29;10.30;93.90
810;DHT22;387;48.772;9.186;2022-09-27T05:17:55;10.30;94.20
810;DHT22;387;48.772;9.186;2022-09-27T05:20:22;10.30;94.30
810;DHT22;387;48.772;9.186;2022-09-27T05:22:50;10.20;94.60
810;DHT22;387;48.772;9.186;2022-09-27T05:25:16;10.20;94.90
810;DHT22;387;48.772;9.186;2022-09-27T05:27:42;10.20;95.00
810;DHT22;387;48.772;9.186;2022-09-27T05:30:08;10.10;95.20
810;DHT22;387;48.772;9.186;2022-09-27T05:32:34;10.10;95.10
810;DHT22;387;48.772;9.186;2022-09-27T05:35:00;10.10;95.20
810;DHT22;387;48.772;9.186;2022-09-27T05:37:25;10.10;95.20
810;DHT22;387;48.772;9.186;2022-09-27T05:39:51;10.10;95.20
810;DHT22;387;48.772;9.186;2022-09-27T05:42:17;10.10;95.10
810;DHT22;387;48.772;9.186;2022-09-27T05:44:44;10.10;95.10
810;DHT22;387;48.772;9.186;2022-09-27T05:47:13;10.10;94.80
810;DHT22;387;48.772;9.186;2022-09-27T05:49:40;10.10;94.90
810;DHT22;387;48.772;9.186;2022-09-27T05:52:06;10.00;94.30
810;DHT22;387;48.772;9.186;2022-09-27T05:54:32;10.00;94.20
810;DHT22;387;48.772;9.186;2022-09-27T05:56:57;10.00;94.70
810;DHT22;387;48.772;9.186;2022-09-27T05:59:25;10.00;94.90
810;DHT22;387;48.772;9.186;2022-09-27T06:01:51;10.00;94.10
810;DHT22;387;48.772;9.186;2022-09-27T06:04:17;10.00;94.00
810;DHT22;387;48.772;9.186;2022-09-27T06:06:43;10.00;93.90
810;DHT22;387;48.772;9.186;2022-09-27T06:09:10;10.00;93.90
810;DHT22;387;48.772;9.186;2022-09-27T06:11:36;10.00;94.30
810;DHT22;387;48.772;9.186;2022-09-27T06:14:02;10.00;94.60
810;DHT22;387;48.772;9.186;2022-09-27T06:16:27;10.00;94.80
810;DHT22;387;48.772;9.186;2022-09-27T06:18:53;10.00;94.80
810;DHT22;387;48.772;9.186;2022-09-27T06:21:19;10.00;94.70
810;DHT22;387;48.772;9.186;2022-09-27T06:23:44;10.00;94.60
810;DHT22;387;48.772;9.186;2022-09-27T06:26:11;10.00;94.80
810;DHT22;387;48.772;9.186;2022-09-27T06:28:37;10.10;94.80
810;DHT22;387;48.772;9.186;2022-09-27T06:31:05;10.10;94.30
810;DHT22;387;48.772;9.186;2022-09-27T06:33:32;10.10;94.30
810;DHT22;387;48.772;9.186;2022-09-27T06:36:06;10.20;94.20
810;DHT22;387;48.772;9.186;2022-09-27T06:38:32;10.20;93.70
810;DHT22;387;48.772;9.186;2022-09-27T06:41:01;10.30;93.20
810;DHT22;387;48.772;9.186;2022-09-27T06:43:27;10.40;93.00
810;DHT22;387;48.772;9.186;2022-09-27T06:45:53;10.40;92.80
810;DHT22;387;48.772;9.186;2022-09-27T06:48:19;10.40;92.60
810;DHT22;387;48.772;9.186;2022-09-27T06:50:46;10.40;92.40
810;DHT22;387;48.772;9.186;2022-09-27T06:53:15;10.40;92.60
810;DHT22;387;48.772;9.186;2022-09-27T06:55:41;10.40;92.30
810;DHT22;387;48.772;9.186;2022-09-27T06:58:09;10.30;91.90
810;DHT22;387;48.772;9.186;2022-09-27T07:00:53;10.30;91.90
810;DHT22;387;48.772;9.186;2022-09-27T07:03:21;10.30;91.10
810;DHT22;387;48.772;9.186;2022-09-27T07:05:58;10.20;90.70
810;DHT22;387;48.772;9.186;2022-09-27T07:08:24;10.30;91.20
810;DHT22;387;48.772;9.186;2022-09-27T07:10:51;10.30;91.10
810;DHT22;387;48.772;9.186;2022-09-27T07:13:17;10.40;91.30
810;DHT22;387;48.772;9.186;2022-09-27T07:15:43;10.40;90.80
810;DHT22;387;48.772;9.186;2022-09-27T07:18:09;10.40;90.80
810;DHT22;387;48.772;9.186;2022-09-27T07:20:35;10.50;91.20
810;DHT22;387;48.772;9.186;2022-09-27T07:23:05;10.50;91.50
810;DHT22;387;48.772;9.186;2022-09-27T07:25:31;10.50;91.40
810;DHT22;387;48.772;9.186;2022-09-27T07:28:05;10.50;91.30
810;DHT22;387;48.772;9.186;2022-09-27T07:30:32;10.60;91.60
810;DHT22;387;48.772;9.186;2022-09-27T07:32:59;10.50;91.40
810;DHT22;387;48.772;9.186;2022-09-27T07:35:25;10.50;91.60
810;DHT22;387;48.772;9.186;2022-09-27T07:37:51;10.50;91.80
810;DHT22;387;48.772;9.186;2022-09-27T07:40:17;10.40;91.00
810;DHT22;387;48.772;9.186;2022-09-27T07:42:43;10.40;91.00
810;DHT22;387;48.772;9.186;2022-09-27T07:45:10;10.40;91.50
810;DHT22;387;48.772;9.186;2022-09-27T07:47:38;10.30;90.20
810;DHT22;387;48.772;9.186;2022-09-27T07:50:05;10.30;90.20
810;DHT22;387;48.772;9.186;2022-09-27T07:52:38;10.30;90.10
810;DHT22;387;48.772;9.186;2022-09-27T07:55:04;10.30;90.30
810;DHT22;387;48.772;9.186;2022-09-27T07:57:30;10.30;90.50
810;DHT22;387;48.772;9.186;2022-09-27T07:59:56;10.30;90.20
810;DHT22;387;48.772;9.186;2022-09-27T08:02:21;10.30;90.40
810;DHT22;387;48.772;9.186;2022-09-27T08:04:48;10.40;90.10
810;DHT22;387;48.772;9.186;2022-09-27T08:07:14;10.50;90.10
810;DHT22;387;48.772;9.186;2022-09-27T08:09:40;10.50;89.20
810;DHT22;387;48.772;9.186;2022-09-27T08:12:06;10.70;89.50
810;DHT22;387;48.772;9.186;2022-09-27T08:14:31;10.80;88.90
810;DHT22;387;48.772;9.186;2022-09-27T08:16:57;10.80;87.40
810;DHT22;387;48.772;9.186;2022-09-27T08:19:23;10.80;88.10
810;DHT22;387;48.772;9.186;2022-09-27T08:21:51;10.70;88.40
810;DHT22;387;48.772;9.186;2022-09-27T08:24:19;10.70;87.80
810;DHT22;387;48.772;9.186;2022-09-27T08:26:45;10.70;87.70
810;DHT22;387;48.772;9.186;2022-09-27T08:29:10;10.70;88.00
810;DHT22;387;48.772;9.186;2022-09-27T08:31:37;10.80;88.00
810;DHT22;387;48.772;9.186;2022-09-27T08:34:03;10.90;87.80
810;DHT22;387;48.772;9.186;2022-09-27T08:36:29;10.90;85.60
810;DHT22;387;48.772;9.186;2022-09-27T08:38:56;11.00;85.60
810;DHT22;387;48.772;9.186;2022-09-27T08:41:49;11.10;84.30
810;DHT22;387;48.772;9.186;2022-09-27T08:44:26;11.20;83.70
810;DHT22;387;48.772;9.186;2022-09-27T08:50:21;11.40;83.60
810;DHT22;387;48.772;9.186;2022-09-27T08:57:58;11.50;81.90
810;DHT22;387;48.772;9.186;2022-09-27T09:00:24;11.50;82.50
810;DHT22;387;48.772;9.186;2022-09-27T09:02:52;11.30;83.10
810;DHT22;387;48.772;9.186;2022-09-27T09:05:30;11.20;84.60
810;DHT22;387;48.772;9.186;2022-09-27T09:08:18;11.10;84.60
810;DHT22;387;48.772;9.186;2022-09-27T09:14:09;11.00;86.20
810;DHT22;387;48.772;9.186;2022-09-27T09:25:04;11.00;86.60
810;DHT22;387;48.772;9.186;2022-09-27T09:30:18;11.40;85.20
810;DHT22;387;48.772;9.186;2022-09-27T09:33:19;11.50;83.70
810;DHT22;387;48.772;9.186;2022-09-27T09:38:46;11.50;81.90
810;DHT22;387;48.772;9.186;2022-09-27T09:43:53;11.50;77.60
810;DHT22;387;48.772;9.186;2022-09-27T09:46:24;11.60;78.30
810;DHT22;387;48.772;9.186;2022-09-27T09:48:57;11.80;79.00
810;DHT22;387;48.772;9.186;2022-09-27T09:51:34;12.00;76.50
810;DHT22;387;48.772;9.186;2022-09-27T09:54:13;12.00;74.30
810;DHT22;387;48.772;9.186;2022-09-27T09:56:45;12.10;75.70
810;DHT22;387;48.772;9.186;2022-09-27T09:59:19;12.30;75.50
810;DHT22;387;48.772;9.186;2022-09-27T10:01:48;12.40;73.90
810;DHT22;387;48.772;9.186;2022-09-27T10:04:25;12.50;73.50
810;DHT22;387;48.772;9.186;2022-09-27T10:06:57;12.50;73.50
810;DHT22;387;48.772;9.186;2022-09-27T10:09:25;12.50;72.40
810;DHT22;387;48.772;9.186;2022-09-27T10:11:52;12.60;73.70
810;DHT22;387;48.772;9.186;2022-09-27T10:14:19;12.90;72.00
810;DHT22;387;48.772;9.186;2022-09-27T10:16:48;12.70;69.90
810;DHT22;387;48.772;9.186;2022-09-27T10:19:22;12.70;71.10
810;DHT22;387;48.772;9.186;2022-09-27T10:21:51;12.70;70.70
810;DHT22;387;48.772;9.186;2022-09-27T10:24:18;12.60;70.50
810;DHT22;387;48.772;9.186;2022-09-27T10:26:45;12.70;71.00
810;DHT22;387;48.772;9.186;2022-09-27T10:29:23;12.80;71.30
810;DHT22;387;48.772;9.186;2022-09-27T10:31:49;12.80;72.00
810;DHT22;387;48.772;9.186;2022-09-27T10:39:33;12.50;73.60
810;DHT22;387;48.772;9.186;2022-09-27T10:42:00;12.40;73.90
810;DHT22;387;48.772;9.186;2022-09-27T10:44:30;12.20;74.60
810;DHT22;387;48.772;9.186;2022-09-27T10:47:07;12.30;74.60
810;DHT22;387;48.772;9.186;2022-09-27T10:49:38;12.50;74.20
810;DHT22;387;48.772;9.186;2022-09-27T10:52:12;12.70;73.20
810;DHT22;387;48.772;9.186;2022-09-27T10:54:39;12.90;72.10
810;DHT22;387;48.772;9.186;2022-09-27T10:57:19;13.00;71.30
810;DHT22;387;48.772;9.186;2022-09-27T11:00:03;13.00;71.40
810;DHT22;387;48.772;9.186;2022-09-27T11:02:35;13.10;71.40
810;DHT22;387;48.772;9.186;2022-09-27T11:07:47;13.10;71.80
810;DHT22;387;48.772;9.186;2022-09-27T11:15:47;13.10;72.30
810;DHT22;387;48.772;9.186;2022-09-27T11:18:28;13.20;72.00
810;DHT22;387;48.772;9.186;2022-09-27T11:23:49;13.20;69.80
810;DHT22;387;48.772;9.186;2022-09-27T11:29:41;12.90;71.00
810;DHT22;387;48.772;9.186;2022-09-27T11:46:31;13.30;70.40
810;DHT22;387;48.772;9.186;2022-09-27T12:02:33;13.00;73.00
810;DHT22;387;48.772;9.186;2022-09-27T12:05:07;13.00;73.50
810;DHT22;387;48.772;9.186;2022-09-27T12:08:16;12.90;73.20
810;DHT22;387;48.772;9.186;2022-09-27T12:10:36;12.80;73.60
810;DHT22;387;48.772;9.186;2022-09-27T12:13:02;12.70;74.80
810;DHT22;387;48.772;9.186;2022-09-27T12:15:31;12.20;73.50
810;DHT22;387;48.772;9.186;2022-09-27T12:18:16;11.50;75.40
810;DHT22;387;48.772;9.186;2022-09-27T12:20:47;10.60;78.40
810;DHT22;387;48.772;9.186;2022-09-27T12:23:23;10.60;81.90
810;DHT22;387;48.772;9.186;2022-09-27T12:25:55;10.40;85.00
810;DHT22;387;48.772;9.186;2022-09-27T12:28:56;10.00;88.30
810;DHT22;387;48.772;9.186;2022-09-27T12:31:43;9.80;90.10
810;DHT22;387;48.772;9.186;2022-09-27T12:36:56;10.00;91.80
810;DHT22;387;48.772;9.186;2022-09-27T12:39:29;10.10;91.50
810;DHT22;387;48.772;9.186;2022-09-27T12:42:01;10.10;90.90
810;DHT22;387;48.772;9.186;2022-09-27T12:44:37;10.10;90.20
810;DHT22;387;48.772;9.186;2022-09-27T12:52:30;10.50;90.00
810;DHT22;387;48.772;9.186;2022-09-27T13:00:47;10.70;88.70
810;DHT22;387;48.772;9.186;2022-09-27T13:06:29;10.90;88.90
810;DHT22;387;48.772;9.186;2022-09-27T13:11:46;11.30;87.30
810;DHT22;387;48.772;9.186;2022-09-27T13:14:25;11.10;89.20
810;DHT22;387;48.772;9.186;2022-09-27T13:16:51;11.20;89.50
810;DHT22;387;48.772;9.186;2022-09-27T13:22:02;10.90;90.10
810;DHT22;387;48.772;9.186;2022-09-27T13:24:43;10.90;90.10
810;DHT22;387;48.772;9.186;2022-09-27T13:29:47;11.30;89.90
810;DHT22;387;48.772;9.186;2022-09-27T13:32:18;11.10;89.30
810;DHT22;387;48.772;9.186;2022-09-27T13:34:52;10.70;91.10
810;DHT22;387;48.772;9.186;2022-09-27T13:42:54;10.20;92.90
810;DHT22;387;48.772;9.186;2022-09-27T13:48:15;10.40;91.60
810;DHT22;387;48.772;9.186;2022-09-27T13:50:51;10.60;91.80
810;DHT22;387;48.772;9.186;2022-09-27T13:55:52;10.40;90.60
810;DHT22;387;48.772;9.186;2022-09-27T14:00:51;10.40;91.30
810;DHT22;387;48.772;9.186;2022-09-27T14:03:33;10.50;91.50
810;DHT22;387;48.772;9.186;2022-09-27T14:06:21;10.60;91.40
810;DHT22;387;48.772;9.186;2022-09-27T14:08:52;10.40;91.50
810;DHT22;387;48.772;9.186;2022-09-27T14:11:27;10.10;91.10
810;DHT22;387;48.772;9.186;2022-09-27T14:13:55;10.10;91.60
810;DHT22;387;48.772;9.186;2022-09-27T14:16:22;10.10;91.80
810;DHT22;387;48.772;9.186;2022-09-27T14:18:53;10.20;92.20
810;DHT22;387;48.772;9.186;2022-09-27T14:21:36;10.10;92.90
810;DHT22;387;48.772;9.186;2022-09-27T14:24:22;9.90;93.30
810;DHT22;387;48.772;9.186;2022-09-27T14:27:21;9.70;93.50
810;DHT22;387;48.772;9.186;2022-09-27T14:29:58;9.60;93.70
810;DHT22;387;48.772;9.186;2022-09-27T14:32:32;9.80;93.90
810;DHT22;387;48.772;9.186;2022-09-27T14:35:14;9.70;94.00
810;DHT22;387;48.772;9.186;2022-09-27T14:38:04;9.90;94.20
810;DHT22;387;48.772;9.186;2022-09-27T14:40:34;10.00;94.10
810;DHT22;387;48.772;9.186;2022-09-27T14:43:00;10.20;93.80
810;DHT22;387;48.772;9.186;2022-09-27T14:47:54;10.50;92.10
810;DHT22;387;48.772;9.186;2022-09-27T14:50:26;10.60;92.00
810;DHT22;387;48.772;9.186;2022-09-27T14:52:54;10.70;91.80
810;DHT22;387;48.772;9.186;2022-09-27T14:55:26;10.80;91.90
810;DHT22;387;48.772;9.186;2022-09-27T14:57:58;10.90;91.90
810;DHT22;387;48.772;9.186;2022-09-27T15:00:27;10.90;91.70
810;DHT22;387;48.772;9.186;2022-09-27T15:02:58;11.00;91.80
810;DHT22;387;48.772;9.186;2022-09-27T15:05:26;11.20;91.90
810;DHT22;387;48.772;9.186;2022-09-27T15:07:53;11.40;91.70
810;DHT22;387;48.772;9.186;2022-09-27T15:10:24;11.70;90.90
810;DHT22;387;48.772;9.186;2022-09-27T15:12:53;11.80;89.50
810;DHT22;387;48.772;9.186;2022-09-27T15:15:24;11.70;87.80
810;DHT22;387;48.772;9.186;2022-09-27T15:17:50;11.70;88.90
810;DHT22;387;48.772;9.186;2022-09-27T15:22:49;11.50;89.30
810;DHT22;387;48.772;9.186;2022-09-27T15:25:27;11.60;88.90
810;DHT22;387;48.772;9.186;2022-09-27T15:28:01;11.60;88.30
810;DHT22;387;48.772;9.186;2022-09-27T15:32:58;11.50;90.10
810;DHT22;387;48.772;9.186;2022-09-27T15:35:29;11.50;90.60
810;DHT22;387;48.772;9.186;2022-09-27T15:38:43;11.80;90.90
810;DHT22;387;48.772;9.186;2022-09-27T15:41:04;11.80;89.00
810;DHT22;387;48.772;9.186;2022-09-27T15:43:34;11.80;87.60
810;DHT22;387;48.772;9.186;2022-09-27T15:46:25;11.80;86.00
810;DHT22;387;48.772;9.186;2022-09-27T15:51:46;11.70;79.60
810;DHT22;387;48.772;9.186;2022-09-27T15:54:12;11.70;79.60
810;DHT22;387;48.772;9.186;2022-09-27T15:56:38;11.70;77.70
810;DHT22;387;48.772;9.186;2022-09-27T15:59:05;11.70;78.70
810;DHT22;387;48.772;9.186;2022-09-27T16:01:32;11.60;78.40
810;DHT22;387;48.772;9.186;2022-09-27T16:04:01;11.60;78.70
810;DHT22;387;48.772;9.186;2022-09-27T16:06:27;11.60;77.10
810;DHT22;387;48.772;9.186;2022-09-27T16:08:53;11.60;77.00
810;DHT22;387;48.772;9.186;2022-09-27T16:11:18;11.60;76.70
810;DHT22;387;48.772;9.186;2022-09-27T16:13:44;11.60;75.40
810;DHT22;387;48.772;9.186;2022-09-27T16:16:18;11.60;76.20
810;DHT22;387;48.772;9.186;2022-09-27T16:18:44;11.50;75.80
810;DHT22;387;48.772;9.186;2022-09-27T16:21:10;11.60;76.20
810;DHT22;387;48.772;9.186;2022-09-27T16:23:36;11.60;76.20
810;DHT22;387;48.772;9.186;2022-09-27T16:26:02;11.50;76.50
810;DHT22;387;48.772;9.186;2022-09-27T16:28:27;11.50;76.20
810;DHT22;387;48.772;9.186;2022-09-27T16:30:53;11.50;75.70
810;DHT22;387;48.772;9.186;2022-09-27T16:33:18;11.50;74.80
810;DHT22;387;48.772;9.186;2022-09-27T16:35:44;11.50;74.60
810;DHT22;387;48.772;9.186;2022-09-27T16:38:10;11.50;74.50
810;DHT22;387;48.772;9.186;2022-09-27T16:40:36;11.60;75.20
810;DHT22;387;48.772;9.186;2022-09-27T16:43:02;11.50;75.20
810;DHT22;387;48.772;9.186;2022-09-27T16:45:32;11.60;75.10
810;DHT22;387;48.772;9.186;2022-09-27T16:47:58;11.60;74.00
810;DHT22;387;48.772;9.186;2022-09-27T16:50:24;11.60;74.20
810;DHT22;387;48.772;9.186;2022-09-27T16:53:08;11.60;74.30
810;DHT22;387;48.772;9.186;2022-09-27T16:55:34;11.60;73.70
810;DHT22;387;48.772;9.186;2022-09-27T16:58:02;11.50;74.60
810;DHT22;387;48.772;9.186;2022-09-27T17:00:29;11.50;75.10
810;DHT22;387;48.772;9.186;2022-09-27T17:02:58;11.50;75.80
810;DHT22;387;48.772;9.186;2022-09-27T17:05:23;11.40;75.20
810;DHT22;387;48.772;9.186;2022-09-27T17:07:52;11.40;75.40
810;DHT22;387;48.772;9.186;2022-09-27T17:10:19;11.40;75.70
810;DHT22;387;48.772;9.186;2022-09-27T17:12:45;11.40;75.50
810;DHT22;387;48.772;9.186;2022-09-27T17:15:14;11.40;76.10
810;DHT22;387;48.772;9.186;2022-09-27T17:17:40;11.30;76.70
810;DHT22;387;48.772;9.186;2022-09-27T17:20:06;11.30;76.10
810;DHT22;387;48.772;9.186;2022-09-27T17:22:31;11.30;76.70
810;DHT22;387;48.772;9.186;2022-09-27T17:24:57;11.30;76.40
810;DHT22;387;48.772;9.186;2022-09-27T17:27:23;11.30;76.10
810;DHT22;387;48.772;9.186;2022-09-27T17:29:53;11.30;76.70
810;DHT22;387;48.772;9.186;2022-09-27T17:32:19;11.20;76.80
810;DHT22;387;48.772;9.186;2022-09-27T17:34:49;11.20;77.40
810;DHT22;387;48.772;9.186;2022-09-27T17:37:14;11.20;77.00
810;DHT22;387;48.772;9.186;2022-09-27T17:39:40;11.20;78.10
810;DHT22;387;48.772;9.186;2022-09-27T17:42:06;11.20;77.80
810;DHT22;387;48.772;9.186;2022-09-27T17:44:31;11.10;78.10
810;DHT22;387;48.772;9.186;2022-09-27T17:46:57;11.10;78.60
810;DHT22;387;48.772;9.186;2022-09-27T17:49:51;11.00;79.00
810;DHT22;387;48.772;9.186;2022-09-27T17:52:36;11.00;79.50
810;DHT22;387;48.772;9.186;2022-09-27T17:55:02;10.90;79.70
810;DHT22;387;48.772;9.186;2022-09-27T17:57:27;10.90;79.70
810;DHT22;387;48.772;9.186;2022-09-27T17:59:53;10.80;80.60
810;DHT22;387;48.772;9.186;2022-09-27T18:02:19;10.80;81.20
810;DHT22;387;48.772;9.186;2022-09-27T18:04:45;10.80;81.50
810;DHT22;387;48.772;9.186;2022-09-27T18:07:10;10.70;82.80
810;DHT22;387;48.772;9.186;2022-09-27T18:09:39;10.60;84.10
810;DHT22;387;48.772;9.186;2022-09-27T18:12:05;10.40;85.00
810;DHT22;387;48.772;9.186;2022-09-27T18:14:30;10.30;86.30
810;DHT22;387;48.772;9.186;2022-09-27T18:16:56;10.20;86.90
810;DHT22;387;48.772;9.186;2022-09-27T18:19:22;10.20;87.00
810;DHT22;387;48.772;9.186;2022-09-27T18:21:49;10.10;87.30
810;DHT22;387;48.772;9.186;2022-09-27T18:24:15;10.10;87.70
810;DHT22;387;48.772;9.186;2022-09-27T18:26:41;10.00;87.70
810;DHT22;387;48.772;9.186;2022-09-27T18:29:13;10.00;88.00
810;DHT22;387;48.772;9.186;2022-09-27T18:31:39;10.00;88.00
810;DHT22;387;48.772;9.186;2022-09-27T18:34:05;10.00;88.10
810;DHT22;387;48.772;9.186;2022-09-27T18:36:31;9.90;88.00
810;DHT22;387;48.772;9.186;2022-09-27T18:38:59;9.90;88.70
810;DHT22;387;48.772;9.186;2022-09-27T18:41:27;9.90;88.40
810;DHT22;387;48.772;9.186;2022-09-27T18:43:54;9.80;88.10
810;DHT22;387;48.772;9.186;2022-09-27T18:46:23;9.80;88.10
810;DHT22;387;48.772;9.186;2022-09-27T18:48:49;9.80;88.10
810;DHT22;387;48.772;9.186;2022-09-27T18:51:18;9.80;87.70
810;DHT22;387;48.772;9.186;2022-09-27T18:53:45;9.80;87.60
810;DHT22;387;48.772;9.186;2022-09-27T18:56:15;9.80;87.70
810;DHT22;387;48.772;9.186;2022-09-27T18:58:42;9.80;87.60
810;DHT22;387;48.772;9.186;2022-09-27T19:01:13;9.70;87.40
810;DHT22;387;48.772;9.186;2022-09-27T19:03:39;9.70;86.90
810;DHT22;387;48.772;9.186;2022-09-27T19:06:11;9.70;87.40
810;DHT22;387;48.772;9.186;2022-09-27T19:08:37;9.60;87.80
810;DHT22;387;48.772;9.186;2022-09-27T19:11:14;9.60;88.10
810;DHT22;387;48.772;9.186;2022-09-27T19:13:40;9.60;88.30
810;DHT22;387;48.772;9.186;2022-09-27T19:16:07;9.50;87.70
810;DHT22;387;48.772;9.186;2022-09-27T19:18:35;9.50;87.30
810;DHT22;387;48.772;9.186;2022-09-27T19:23:31;9.40;87.40
810;DHT22;387;48.772;9.186;2022-09-27T19:26:01;9.40;87.60
810;DHT22;387;48.772;9.186;2022-09-27T19:28:32;9.40;87.00
810;DHT22;387;48.772;9.186;2022-09-27T19:30:58;9.40;87.10
810;DHT22;387;48.772;9.186;2022-09-27T19:33:23;9.40;87.30
810;DHT22;387;48.772;9.186;2022-09-27T19:35:49;9.30;87.30
810;DHT22;387;48.772;9.186;2022-09-27T19:38:15;9.30;87.70
810;DHT22;387;48.772;9.186;2022-09-27T19:40:40;9.30;88.10